sensor_id;sensor_type;location;lat;lon;timestamp;pressure;altitude;pressure_sealevel;temperature;humidity
20696;BME280;10507;52.754;13.040;2024-01-30T00:01:52;102282.38;;;1.06;98.93
20696;BME280;10507;52.754;13.040;2024-01-30T00:04:20;102282.47;;;1.11;98.82
20696;BME280;10507;52.754;13.040;2024-01-30T00:06:47;102279.88;;;1.14;98.77
20696;BME280;10507;52.754;13.040;2024-01-30T00:09:13;102280.03;;;1.24;99.62
20696;BME280;10507;52.754;13.040;2024-01-30T00:11:40;102274.84;;;1.29;99.28
20696;BME280;10507;52.754;13.040;2024-01-30T00:14:07;102283.72;;;1.39;99.24
20696;BME280;10507;52.754;13.040;2024-01-30T00:16:33;102285.69;;;1.52;99.50
20696;BME280;10507;52.754;13.040;2024-01-30T00:19:00;102273.47;;;1.57;99.29
20696;BME280;10507;52.754;13.040;2024-01-30T00:21:29;102265.69;;;1.68;99.10
20696;BME280;10507;52.754;13.040;2024-01-30T00:23:55;102264.03;;;1.75;98.66
20696;BME280;10507;52.754;13.040;2024-01-30T00:26:22;102255.31;;;1.77;98.39
20696;BME280;10507;52.754;13.040;2024-01-30T00:28:49;102243.03;;;1.79;98.09
20696;BME280;10507;52.754;13.040;2024-01-30T00:31:15;102237.72;;;1.73;97.92
20696;BME280;10507;52.754;13.040;2024-01-30T00:33:42;102228.91;;;1.71;97.50
20696;BME280;10507;52.754;13.040;2024-01-30T00:36:09;102223.59;;;1.66;97.34
20696;BME280;10507;52.754;13.040;2024-01-30T00:38:37;102218.19;;;1.59;97.25
20696;BME280;10507;52.754;13.040;2024-01-30T00:41:04;102214.50;;;1.43;97.14
20696;BME280;10507;52.754;13.040;2024-01-30T00:43:30;102211.66;;;1.28;96.92
20696;BME280;10507;52.754;13.040;2024-01-30T00:45:57;102227.50;;;1.31;97.25
20696;BME280;10507;52.754;13.040;2024-01-30T00:48:24;102233.56;;;1.23;97.44
20696;BME280;10507;52.754;13.040;2024-01-30T00:50:51;102236.03;;;1.14;97.61
20696;BME280;10507;52.754;13.040;2024-01-30T00:53:17;102235.03;;;1.08;97.88
20696;BME280;10507;52.754;13.040;2024-01-30T00:55:45;102239.38;;;1.02;98.20
20696;BME280;10507;52.754;13.040;2024-01-30T00:58:12;102247.25;;;1.02;98.06
20696;BME280;10507;52.754;13.040;2024-01-30T01:00:39;102266.78;;;1.18;98.76
20696;BME280;10507;52.754;13.040;2024-01-30T01:03:05;102267.66;;;1.17;98.72
20696;BME280;10507;52.754;13.040;2024-01-30T01:05:32;102263.19;;;1.13;98.57
20696;BME280;10507;52.754;13.040;2024-01-30T01:07:58;102274.81;;;1.26;98.82
20696;BME280;10507;52.754;13.040;2024-01-30T01:10:25;102272.22;;;1.32;98.66
20696;BME280;10507;52.754;13.040;2024-01-30T01:12:54;102252.78;;;1.19;98.13
20696;BME280;10507;52.754;13.040;2024-01-30T01:15:20;102257.09;;;1.16;98.77
20696;BME280;10507;52.754;13.040;2024-01-30T01:17:47;102254.44;;;1.13;98.58
20696;BME280;10507;52.754;13.040;2024-01-30T01:20:14;102254.50;;;1.17;98.53
20696;BME280;10507;52.754;13.040;2024-01-30T01:22:41;102245.56;;;1.08;98.14
20696;BME280;10507;52.754;13.040;2024-01-30T01:25:08;102244.53;;;0.96;97.74
20696;BME280;10507;52.754;13.040;2024-01-30T01:27:35;102255.19;;;1.04;98.57
20696;BME280;10507;52.754;13.040;2024-01-30T01:30:09;102250.59;;;0.91;98.66
20696;BME280;10507;52.754;13.040;2024-01-30T01:32:36;102245.03;;;0.74;97.89
20696;BME280;10507;52.754;13.040;2024-01-30T01:35:04;102252.78;;;0.65;98.67
20696;BME280;10507;52.754;13.040;2024-01-30T01:37:31;102266.88;;;0.68;99.23
20696;BME280;10507;52.754;13.040;2024-01-30T01:39:57;102275.56;;;0.64;99.44
20696;BME280;10507;52.754;13.040;2024-01-30T01:42:24;102280.03;;;0.68;99.58
20696;BME280;10507;52.754;13.040;2024-01-30T01:44:51;102285.34;;;0.73;100.00
20696;BME280;10507;52.754;13.040;2024-01-30T01:47:19;102282.91;;;0.83;100.00
20696;BME280;10507;52.754;13.040;2024-01-30T01:49:46;102289.97;;;0.86;99.97
20696;BME280;10507;52.754;13.040;2024-01-30T01:52:13;102282.91;;;0.85;99.91
20696;BME280;10507;52.754;13.040;2024-01-30T01:54:40;102292.91;;;1.06;100.00
20696;BME280;10507;52.754;13.040;2024-01-30T01:57:07;102296.59;;;1.17;100.00
20696;BME280;10507;52.754;13.040;2024-01-30T01:59:34;102286.84;;;1.10;100.00
20696;BME280;10507;52.754;13.040;2024-01-30T02:02:02;102287.78;;;1.15;100.00
20696;BME280;10507;52.754;13.040;2024-01-30T02:04:31;102280.06;;;1.26;99.95
20696;BME280;10507;52.754;13.040;2024-01-30T02:06:58;102283.78;;;1.42;99.81
20696;BME280;10507;52.754;13.040;2024-01-30T02:09:25;102284.78;;;1.49;100.00
20696;BME280;10507;52.754;13.040;2024-01-30T02:11:51;102272.50;;;1.52;99.78
20696;BME280;10507;52.754;13.040;2024-01-30T02:14:18;102265.47;;;1.48;99.60
20696;BME280;10507;52.754;13.040;2024-01-30T02:16:45;102257.47;;;1.42;99.40
20696;BME280;10507;52.754;13.040;2024-01-30T02:19:11;102259.22;;;1.40;99.43
20696;BME280;10507;52.754;13.040;2024-01-30T02:21:39;102257.41;;;1.39;99.19
20696;BME280;10507;52.754;13.040;2024-01-30T02:24:06;102249.53;;;1.39;99.37
20696;BME280;10507;52.754;13.040;2024-01-30T02:26:33;102262.72;;;1.40;99.76
20696;BME280;10507;52.754;13.040;2024-01-30T02:28:59;102260.97;;;1.41;99.65
20696;BME280;10507;52.754;13.040;2024-01-30T02:31:26;102265.34;;;1.40;99.80
20696;BME280;10507;52.754;13.040;2024-01-30T02:33:52;102264.56;;;1.46;99.74
20696;BME280;10507;52.754;13.040;2024-01-30T02:36:19;102259.31;;;1.49;99.71
20696;BME280;10507;52.754;13.040;2024-01-30T02:38:47;102250.63;;;1.56;99.47
20696;BME280;10507;52.754;13.040;2024-01-30T02:41:14;102250.72;;;1.62;99.43
20696;BME280;10507;52.754;13.040;2024-01-30T02:43:41;102241.94;;;1.60;99.19
20696;BME280;10507;52.754;13.040;2024-01-30T02:46:07;102242.84;;;1.65;99.05
20696;BME280;10507;52.754;13.040;2024-01-30T02:48:34;102239.41;;;1.70;98.85
20696;BME280;10507;52.754;13.040;2024-01-30T02:51:00;102232.34;;;1.67;98.57
20696;BME280;10507;52.754;13.040;2024-01-30T02:53:27;102229.69;;;1.65;98.44
20696;BME280;10507;52.754;13.040;2024-01-30T02:55:55;102226.22;;;1.66;98.46
20696;BME280;10507;52.754;13.040;2024-01-30T02:58:21;102224.47;;;1.69;98.48
20696;BME280;10507;52.754;13.040;2024-01-30T03:00:48;102218.34;;;1.70;98.09
20696;BME280;10507;52.754;13.040;2024-01-30T03:03:15;102216.59;;;1.70;97.97
20696;BME280;10507;52.754;13.040;2024-01-30T03:05:41;102213.13;;;1.73;97.86
20696;BME280;10507;52.754;13.040;2024-01-30T03:08:08;102212.25;;;1.74;97.56
20696;BME280;10507;52.754;13.040;2024-01-30T03:10:35;102201.69;;;1.72;97.65
20696;BME280;10507;52.754;13.040;2024-01-30T03:13:03;102197.31;;;1.71;97.40
20696;BME280;10507;52.754;13.040;2024-01-30T03:15:30;102200.78;;;1.70;97.15
20696;BME280;10507;52.754;13.040;2024-01-30T03:17:56;102185.84;;;1.66;97.20
20696;BME280;10507;52.754;13.040;2024-01-30T03:20:23;102193.69;;;1.63;96.74
20696;BME280;10507;52.754;13.040;2024-01-30T03:22:50;102196.25;;;1.55;97.10
20696;BME280;10507;52.754;13.040;2024-01-30T03:25:16;102192.78;;;1.59;97.39
20696;BME280;10507;52.754;13.040;2024-01-30T03:27:43;102198.03;;;1.58;97.20
20696;BME280;10507;52.754;13.040;2024-01-30T03:30:11;102205.00;;;1.53;97.22
20696;BME280;10507;52.754;13.040;2024-01-30T03:32:38;102189.06;;;1.42;96.92
20696;BME280;10507;52.754;13.040;2024-01-30T03:35:05;102174.78;;;1.21;96.90
20696;BME280;10507;52.754;13.040;2024-01-30T03:37:32;102180.66;;;1.03;96.99
20696;BME280;10507;52.754;13.040;2024-01-30T03:39:59;102195.34;;;0.88;97.34
20696;BME280;10507;52.754;13.040;2024-01-30T03:42:25;102213.53;;;0.75;97.77
20696;BME280;10507;52.754;13.040;2024-01-30T03:44:52;102233.63;;;0.70;98.08
20696;BME280;10507;52.754;13.040;2024-01-30T03:47:21;102242.28;;;0.65;99.13
20696;BME280;10507;52.754;13.040;2024-01-30T03:49:48;102246.63;;;0.62;99.42
20696;BME280;10507;52.754;13.040;2024-01-30T03:52:15;102253.50;;;0.56;99.95
20696;BME280;10507;52.754;13.040;2024-01-30T03:54:41;102256.97;;;0.53;99.56
20696;BME280;10507;52.754;13.040;2024-01-30T03:57:08;102254.25;;;0.47;99.99
20696;BME280;10507;52.754;13.040;2024-01-30T03:59:34;102264.66;;;0.43;100.00
20696;BME280;10507;52.754;13.040;2024-01-30T04:02:00;102250.56;;;0.37;100.00
20696;BME280;10507;52.754;13.040;2024-01-30T04:04:28;102253.06;;;0.30;99.97
20696;BME280;10507;52.754;13.040;2024-01-30T04:06:55;102251.19;;;0.23;100.00
20696;BME280;10507;52.754;13.040;2024-01-30T04:09:21;102264.34;;;0.24;100.00
20696;BME280;10507;52.754;13.040;2024-01-30T04:11:48;102264.41;;;0.27;100.00
20696;BME280;10507;52.754;13.040;2024-01-30T04:14:15;102262.72;;;0.31;100.00
20696;BME280;10507;52.754;13.040;2024-01-30T04:16:41;102258.34;;;0.31;100.00
20696;BME280;10507;52.754;13.040;2024-01-30T04:19:08;102260.09;;;0.31;100.00
20696;BME280;10507;52.754;13.040;2024-01-30T04:21:36;102250.50;;;0.33;100.00
20696;BME280;10507;52.754;13.040;2024-01-30T04:24:03;102262.03;;;0.43;100.00
20696;BME280;10507;52.754;13.040;2024-01-30T04:26:30;102259.47;;;0.46;100.00
20696;BME280;10507;52.754;13.040;2024-01-30T04:28:57;102255.97;;;0.47;100.00
20696;BME280;10507;52.754;13.040;2024-01-30T04:31:23;102249.84;;;0.46;100.00
20696;BME280;10507;52.754;13.040;2024-01-30T04:33:50;102254.34;;;0.52;100.00
20696;BME280;10507;52.754;13.040;2024-01-30T04:36:16;102250.84;;;0.53;100.00
20696;BME280;10507;52.754;13.040;2024-01-30T04:38:44;102249.78;;;0.41;100.00
20696;BME280;10507;52.754;13.040;2024-01-30T04:41:11;102240.81;;;0.30;100.00
20696;BME280;10507;52.754;13.040;2024-01-30T04:43:38;102244.06;;;0.17;100.00
20696;BME280;10507;52.754;13.040;2024-01-30T04:46:04;102251.91;;;0.14;100.00
20696;BME280;10507;52.754;13.040;2024-01-30T04:48:31;102248.53;;;0.21;100.00
20696;BME280;10507;52.754;13.040;2024-01-30T04:50:58;102256.75;;;0.39;100.00
20696;BME280;10507;52.754;13.040;2024-01-30T04:53:29;102256.13;;;0.56;100.00
20696;BME280;10507;52.754;13.040;2024-01-30T04:55:57;102258.13;;;0.69;100.00
20696;BME280;10507;52.754;13.040;2024-01-30T04:58:24;102261.81;;;0.79;100.00
20696;BME280;10507;52.754;13.040;2024-01-30T05:00:51;102257.59;;;0.90;100.00
20696;BME280;10507;52.754;13.040;2024-01-30T05:03:17;102248.91;;;0.94;100.00
20696;BME280;10507;52.754;13.040;2024-01-30T05:05:44;102244.63;;;1.01;100.00
20696;BME280;10507;52.754;13.040;2024-01-30T05:08:11;102234.09;;;1.02;100.00
20696;BME280;10507;52.754;13.040;2024-01-30T05:10:37;102234.16;;;1.06;100.00
20696;BME280;10507;52.754;13.040;2024-01-30T05:13:06;102235.97;;;1.08;100.00
20696;BME280;10507;52.754;13.040;2024-01-30T05:15:32;102231.63;;;1.13;100.00
20696;BME280;10507;52.754;13.040;2024-01-30T05:17:59;102222.91;;;1.16;100.00
20696;BME280;10507;52.754;13.040;2024-01-30T05:20:25;102217.72;;;1.20;100.00
20696;BME280;10507;52.754;13.040;2024-01-30T05:22:53;102217.75;;;1.25;100.00
20696;BME280;10507;52.754;13.040;2024-01-30T05:25:19;102209.03;;;1.28;100.00
20696;BME280;10507;52.754;13.040;2024-01-30T05:27:46;102192.31;;;1.22;100.00
20696;BME280;10507;52.754;13.040;2024-01-30T05:30:14;102192.28;;;1.19;100.00
20696;BME280;10507;52.754;13.040;2024-01-30T05:32:41;102181.75;;;1.19;100.00
20696;BME280;10507;52.754;13.040;2024-01-30T05:35:07;102182.59;;;1.18;100.00
20696;BME280;10507;52.754;13.040;2024-01-30T05:37:34;102176.44;;;1.16;100.00
20696;BME280;10507;52.754;13.040;2024-01-30T05:40:01;102176.38;;;1.10;100.00
20696;BME280;10507;52.754;13.040;2024-01-30T05:42:28;102184.22;;;1.09;100.00
20696;BME280;10507;52.754;13.040;2024-01-30T05:44:54;102173.69;;;1.07;100.00
20696;BME280;10507;52.754;13.040;2024-01-30T05:47:22;102185.16;;;1.12;100.00
20696;BME280;10507;52.754;13.040;2024-01-30T05:49:49;102179.00;;;1.10;100.00
20696;BME280;10507;52.754;13.040;2024-01-30T05:52:16;102183.38;;;1.11;100.00
20696;BME280;10507;52.754;13.040;2024-01-30T05:54:44;102188.69;;;1.14;100.00
20696;BME280;10507;52.754;13.040;2024-01-30T05:57:10;102181.75;;;1.19;100.00
20696;BME280;10507;52.754;13.040;2024-01-30T05:59:37;102184.38;;;1.21;100.00
20696;BME280;10507;52.754;13.040;2024-01-30T06:02:04;102174.75;;;1.23;100.00
20696;BME280;10507;52.754;13.040;2024-01-30T06:04:32;102175.69;;;1.23;99.83
20696;BME280;10507;52.754;13.040;2024-01-30T06:06:58;102176.56;;;1.24;99.84
20696;BME280;10507;52.754;13.040;2024-01-30T06:09:27;102166.84;;;1.20;99.53
20696;BME280;10507;52.754;13.040;2024-01-30T06:11:54;102161.59;;;1.20;99.62
20696;BME280;10507;52.754;13.040;2024-01-30T06:14:20;102169.47;;;1.20;99.64
20696;BME280;10507;52.754;13.040;2024-01-30T06:16:47;102165.09;;;1.19;99.13
20696;BME280;10507;52.754;13.040;2024-01-30T06:19:14;102160.66;;;1.15;99.30
20696;BME280;10507;52.754;13.040;2024-01-30T06:21:42;102168.47;;;1.12;99.73
20696;BME280;10507;52.754;13.040;2024-01-30T06:24:08;102172.03;;;1.15;99.72
20696;BME280;10507;52.754;13.040;2024-01-30T06:26:35;102184.31;;;1.15;99.84
20696;BME280;10507;52.754;13.040;2024-01-30T06:29:02;102166.72;;;1.11;99.48
20696;BME280;10507;52.754;13.040;2024-01-30T06:31:29;102188.69;;;1.14;99.63
20696;BME280;10507;52.754;13.040;2024-01-30T06:33:56;102182.53;;;1.12;99.80
20696;BME280;10507;52.754;13.040;2024-01-30T06:36:23;102174.66;;;1.12;99.76
20696;BME280;10507;52.754;13.040;2024-01-30T06:38:51;102185.16;;;1.12;99.67
20696;BME280;10507;52.754;13.040;2024-01-30T06:41:17;102191.31;;;1.13;99.97
20696;BME280;10507;52.754;13.040;2024-01-30T06:43:44;102191.31;;;1.13;99.92
20696;BME280;10507;52.754;13.040;2024-01-30T06:46:11;102193.88;;;1.08;99.35
20696;BME280;10507;52.754;13.040;2024-01-30T06:48:38;102188.63;;;1.08;99.46
20696;BME280;10507;52.754;13.040;2024-01-30T06:51:05;102188.53;;;1.02;99.74
20696;BME280;10507;52.754;13.040;2024-01-30T06:53:32;102190.22;;;0.98;99.72
20696;BME280;10507;52.754;13.040;2024-01-30T06:56:00;102201.59;;;0.97;100.00
20696;BME280;10507;52.754;13.040;2024-01-30T06:58:27;102208.66;;;1.00;100.00
20696;BME280;10507;52.754;13.040;2024-01-30T07:00:54;102198.03;;;0.94;99.32
20696;BME280;10507;52.754;13.040;2024-01-30T07:03:20;102206.00;;;0.97;100.00
20696;BME280;10507;52.754;13.040;2024-01-30T07:05:47;102201.59;;;0.97;100.00
20696;BME280;10507;52.754;13.040;2024-01-30T07:08:14;102213.03;;;0.99;100.00
20696;BME280;10507;52.754;13.040;2024-01-30T07:10:42;102208.63;;;0.97;100.00
20696;BME280;10507;52.754;13.040;2024-01-30T07:13:10;102199.81;;;0.96;100.00
20696;BME280;10507;52.754;13.040;2024-01-30T07:15:37;102206.91;;;1.00;100.00
20696;BME280;10507;52.754;13.040;2024-01-30T07:18:05;102206.94;;;1.02;100.00
20696;BME280;10507;52.754;13.040;2024-01-30T07:20:31;102199.88;;;0.99;100.00
20696;BME280;10507;52.754;13.040;2024-01-30T07:22:58;102192.00;;;0.99;100.00
20696;BME280;10507;52.754;13.040;2024-01-30T07:25:25;102190.22;;;0.97;100.00
20696;BME280;10507;52.754;13.040;2024-01-30T07:27:52;102199.03;;;1.02;100.00
20696;BME280;10507;52.754;13.040;2024-01-30T07:30:20;102186.69;;;0.95;100.00
20696;BME280;10507;52.754;13.040;2024-01-30T07:32:46;102199.00;;;1.00;100.00
20696;BME280;10507;52.754;13.040;2024-01-30T07:35:13;102192.97;;;1.08;99.96
20696;BME280;10507;52.754;13.040;2024-01-30T07:37:40;102203.63;;;1.15;99.89
20696;BME280;10507;52.754;13.040;2024-01-30T07:40:07;102184.38;;;1.21;99.74
20696;BME280;10507;52.754;13.040;2024-01-30T07:42:34;102182.75;;;1.29;100.00
20696;BME280;10507;52.754;13.040;2024-01-30T07:45:01;102176.69;;;1.35;99.52
20696;BME280;10507;52.754;13.040;2024-01-30T07:47:29;102167.06;;;1.38;99.53
20696;BME280;10507;52.754;13.040;2024-01-30T07:49:55;102168.94;;;1.47;99.36
20696;BME280;10507;52.754;13.040;2024-01-30T07:52:22;102169.88;;;1.52;99.07
20696;BME280;10507;52.754;13.040;2024-01-30T07:54:48;102154.94;;;1.50;98.70
20696;BME280;10507;52.754;13.040;2024-01-30T07:57:15;102161.88;;;1.41;98.74
20696;BME280;10507;52.754;13.040;2024-01-30T07:59:42;102176.94;;;1.55;99.64
20696;BME280;10507;52.754;13.040;2024-01-30T08:02:09;102191.16;;;1.71;99.48
20696;BME280;10507;52.754;13.040;2024-01-30T08:04:37;102190.34;;;1.76;98.88
20696;BME280;10507;52.754;13.040;2024-01-30T08:07:04;102179.91;;;1.85;98.94
20696;BME280;10507;52.754;13.040;2024-01-30T08:09:31;102187.94;;;1.98;98.82
20696;BME280;10507;52.754;13.040;2024-01-30T08:11:57;102186.34;;;2.14;98.63
20696;BME280;10507;52.754;13.040;2024-01-30T08:14:24;102175.91;;;2.26;98.13
20696;BME280;10507;52.754;13.040;2024-01-30T08:16:51;102160.13;;;2.31;97.85
20696;BME280;10507;52.754;13.040;2024-01-30T08:19:17;102149.66;;;2.38;97.05
20696;BME280;10507;52.754;13.040;2024-01-30T08:21:45;102125.09;;;2.44;96.62
20696;BME280;10507;52.754;13.040;2024-01-30T08:24:12;102107.59;;;2.49;95.99
20696;BME280;10507;52.754;13.040;2024-01-30T08:26:39;102098.81;;;2.55;95.91
20696;BME280;10507;52.754;13.040;2024-01-30T08:29:05;102091.84;;;2.66;94.91
20696;BME280;10507;52.754;13.040;2024-01-30T08:31:32;102076.03;;;2.69;95.22
20696;BME280;10507;52.754;13.040;2024-01-30T08:33:59;102065.53;;;2.74;94.64
20696;BME280;10507;52.754;13.040;2024-01-30T08:36:25;102055.84;;;2.76;94.54
20696;BME280;10507;52.754;13.040;2024-01-30T08:38:53;102052.41;;;2.83;93.84
20696;BME280;10507;52.754;13.040;2024-01-30T08:41:20;102050.59;;;2.80;93.94
20696;BME280;10507;52.754;13.040;2024-01-30T08:43:47;102055.03;;;2.81;93.77
20696;BME280;10507;52.754;13.040;2024-01-30T08:46:17;102050.66;;;2.88;93.51
20696;BME280;10507;52.754;13.040;2024-01-30T08:48:44;102054.22;;;2.96;93.92
20696;BME280;10507;52.754;13.040;2024-01-30T08:51:10;102048.91;;;2.98;93.94
20696;BME280;10507;52.754;13.040;2024-01-30T08:53:37;102045.44;;;2.99;93.23
20696;BME280;10507;52.754;13.040;2024-01-30T08:56:06;102051.56;;;2.98;93.41
20696;BME280;10507;52.754;13.040;2024-01-30T08:58:33;102038.34;;;2.93;93.29
20696;BME280;10507;52.754;13.040;2024-01-30T09:01:00;102045.41;;;2.92;93.46
20696;BME280;10507;52.754;13.040;2024-01-30T09:03:26;102056.00;;;3.08;93.94
20696;BME280;10507;52.754;13.040;2024-01-30T09:05:53;102073.59;;;3.09;93.51
20696;BME280;10507;52.754;13.040;2024-01-30T09:08:19;102066.56;;;3.11;93.66
20696;BME280;10507;52.754;13.040;2024-01-30T09:10:46;102082.44;;;3.29;93.52
20696;BME280;10507;52.754;13.040;2024-01-30T09:13:14;102083.41;;;3.45;93.28
20696;BME280;10507;52.754;13.040;2024-01-30T09:15:41;102085.22;;;3.63;92.81
20696;BME280;10507;52.754;13.040;2024-01-30T09:18:09;102061.44;;;3.72;92.31
20696;BME280;10507;52.754;13.040;2024-01-30T09:20:36;102043.81;;;3.85;92.47
20696;BME280;10507;52.754;13.040;2024-01-30T09:23:03;102046.50;;;3.99;92.16
20696;BME280;10507;52.754;13.040;2024-01-30T09:25:29;102035.00;;;4.26;91.67
20696;BME280;10507;52.754;13.040;2024-01-30T09:27:56;102020.00;;;4.36;91.43
20696;BME280;10507;52.754;13.040;2024-01-30T09:30:25;102006.75;;;4.53;90.61
20696;BME280;10507;52.754;13.040;2024-01-30T09:32:51;102001.44;;;4.62;90.31
20696;BME280;10507;52.754;13.040;2024-01-30T09:35:18;101993.41;;;4.82;89.87
20696;BME280;10507;52.754;13.040;2024-01-30T09:37:45;101954.59;;;4.75;89.10
20696;BME280;10507;52.754;13.040;2024-01-30T09:40:11;101951.97;;;4.75;88.91
20696;BME280;10507;52.754;13.040;2024-01-30T09:42:39;101972.16;;;4.96;89.68
20696;BME280;10507;52.754;13.040;2024-01-30T09:45:07;101964.16;;;5.07;88.56
20696;BME280;10507;52.754;13.040;2024-01-30T09:47:40;101946.47;;;5.10;88.42
20696;BME280;10507;52.754;13.040;2024-01-30T09:50:09;101971.91;;;5.34;88.61
20696;BME280;10507;52.754;13.040;2024-01-30T09:52:35;101937.50;;;5.36;88.06
20696;BME280;10507;52.754;13.040;2024-01-30T09:55:03;101932.13;;;5.42;88.10
20696;BME280;10507;52.754;13.040;2024-01-30T09:57:29;101923.22;;;5.49;87.82
20696;BME280;10507;52.754;13.040;2024-01-30T09:59:56;101937.22;;;5.68;87.84
20696;BME280;10507;52.754;13.040;2024-01-30T10:02:23;101896.59;;;5.65;87.06
20696;BME280;10507;52.754;13.040;2024-01-30T10:04:52;101884.22;;;5.67;86.55
20696;BME280;10507;52.754;13.040;2024-01-30T10:07:19;101879.78;;;5.69;86.11
20696;BME280;10507;52.754;13.040;2024-01-30T10:09:46;101906.13;;;5.86;86.41
20696;BME280;10507;52.754;13.040;2024-01-30T10:12:14;101903.38;;;5.99;85.96
20696;BME280;10507;52.754;13.040;2024-01-30T10:14:42;101859.06;;;6.09;85.17
20696;BME280;10507;52.754;13.040;2024-01-30T10:17:09;101861.53;;;6.24;84.96
20696;BME280;10507;52.754;13.040;2024-01-30T10:19:37;101838.44;;;6.33;84.15
20696;BME280;10507;52.754;13.040;2024-01-30T10:22:05;101789.88;;;6.28;83.84
20696;BME280;10507;52.754;13.040;2024-01-30T10:24:33;101781.81;;;6.37;82.99
20696;BME280;10507;52.754;13.040;2024-01-30T10:27:00;101778.16;;;6.44;82.75
20696;BME280;10507;52.754;13.040;2024-01-30T10:29:27;101728.66;;;6.43;81.81
20696;BME280;10507;52.754;13.040;2024-01-30T10:31:58;101752.28;;;6.60;81.98
20696;BME280;10507;52.754;13.040;2024-01-30T10:34:25;101731.97;;;6.57;81.05
20696;BME280;10507;52.754;13.040;2024-01-30T10:36:59;101724.81;;;6.62;80.85
20696;BME280;10507;52.754;13.040;2024-01-30T10:39:29;101731.75;;;6.73;81.07
20696;BME280;10507;52.754;13.040;2024-01-30T10:41:56;101761.56;;;6.87;81.16
20696;BME280;10507;52.754;13.040;2024-01-30T10:44:27;101742.81;;;6.96;81.24
20696;BME280;10507;52.754;13.040;2024-01-30T10:47:00;101753.44;;;6.98;81.34
20696;BME280;10507;52.754;13.040;2024-01-30T10:49:29;101762.06;;;7.09;81.18
20696;BME280;10507;52.754;13.040;2024-01-30T10:51:57;101750.44;;;7.15;80.80
20696;BME280;10507;52.754;13.040;2024-01-30T10:54:25;101742.38;;;7.22;80.21
20696;BME280;10507;52.754;13.040;2024-01-30T10:56:54;101721.22;;;7.16;79.97
20696;BME280;10507;52.754;13.040;2024-01-30T10:59:23;101735.25;;;7.24;80.10
20696;BME280;10507;52.754;13.040;2024-01-30T11:01:50;101738.75;;;7.26;80.89
20696;BME280;10507;52.754;13.040;2024-01-30T11:04:17;101755.28;;;7.42;80.06
20696;BME280;10507;52.754;13.040;2024-01-30T11:06:44;101737.38;;;7.50;79.56
20696;BME280;10507;52.754;13.040;2024-01-30T11:09:11;101717.88;;;7.52;79.42
20696;BME280;10507;52.754;13.040;2024-01-30T11:11:50;101693.22;;;7.45;78.91
20696;BME280;10507;52.754;13.040;2024-01-30T11:14:24;101702.13;;;7.42;79.98
20696;BME280;10507;52.754;13.040;2024-01-30T11:16:51;101720.47;;;7.55;79.50
20696;BME280;10507;52.754;13.040;2024-01-30T11:19:22;101715.94;;;7.60;79.03
20696;BME280;10507;52.754;13.040;2024-01-30T11:21:50;101688.66;;;7.52;79.74
20696;BME280;10507;52.754;13.040;2024-01-30T11:24:19;101701.78;;;7.58;78.48
20696;BME280;10507;52.754;13.040;2024-01-30T11:26:48;101688.38;;;7.64;78.54
20696;BME280;10507;52.754;13.040;2024-01-30T11:29:16;101679.44;;;7.69;78.52
20696;BME280;10507;52.754;13.040;2024-01-30T11:31:53;101661.91;;;7.59;79.02
20696;BME280;10507;52.754;13.040;2024-01-30T11:34:20;101675.84;;;7.70;78.79
20696;BME280;10507;52.754;13.040;2024-01-30T11:36:53;101685.44;;;7.78;79.20
20696;BME280;10507;52.754;13.040;2024-01-30T11:39:25;101696.69;;;7.90;78.39
20696;BME280;10507;52.754;13.040;2024-01-30T11:41:52;101699.13;;;8.00;78.25
20696;BME280;10507;52.754;13.040;2024-01-30T11:44:19;101674.44;;;7.95;78.89
20696;BME280;10507;52.754;13.040;2024-01-30T11:46:47;101636.28;;;7.96;78.23
20696;BME280;10507;52.754;13.040;2024-01-30T11:49:16;101634.56;;;7.93;77.22
20696;BME280;10507;52.754;13.040;2024-01-30T11:51:43;101640.59;;;8.01;77.53
20696;BME280;10507;52.754;13.040;2024-01-30T11:54:14;101593.97;;;7.86;78.01
20696;BME280;10507;52.754;13.040;2024-01-30T11:56:40;101600.97;;;7.90;77.59
20696;BME280;10507;52.754;13.040;2024-01-30T11:59:07;101582.22;;;7.97;76.77
20696;BME280;10507;52.754;13.040;2024-01-30T12:01:34;101591.81;;;8.02;77.03
20696;BME280;10507;52.754;13.040;2024-01-30T12:04:00;101590.94;;;8.02;76.96
20696;BME280;10507;52.754;13.040;2024-01-30T12:06:29;101559.25;;;7.93;76.45
20696;BME280;10507;52.754;13.040;2024-01-30T12:09:00;101573.31;;;7.98;77.29
20696;BME280;10507;52.754;13.040;2024-01-30T12:11:29;101585.53;;;8.05;77.16
20696;BME280;10507;52.754;13.040;2024-01-30T12:13:56;101599.53;;;8.13;76.75
20696;BME280;10507;52.754;13.040;2024-01-30T12:16:23;101610.81;;;8.23;77.55
20696;BME280;10507;52.754;13.040;2024-01-30T12:18:59;101571.97;;;8.16;76.25
20696;BME280;10507;52.754;13.040;2024-01-30T12:21:27;101568.31;;;8.21;76.65
20696;BME280;10507;52.754;13.040;2024-01-30T12:23:56;101554.03;;;8.24;76.69
20696;BME280;10507;52.754;13.040;2024-01-30T12:26:23;101540.94;;;8.16;76.48
20696;BME280;10507;52.754;13.040;2024-01-30T12:28:51;101556.59;;;8.28;77.14
20696;BME280;10507;52.754;13.040;2024-01-30T12:31:25;101535.16;;;8.35;75.71
20696;BME280;10507;52.754;13.040;2024-01-30T12:33:52;101536.75;;;8.42;75.66
20696;BME280;10507;52.754;13.040;2024-01-30T12:36:19;101559.56;;;8.52;75.93
20696;BME280;10507;52.754;13.040;2024-01-30T12:38:45;101555.75;;;8.61;75.35
20696;BME280;10507;52.754;13.040;2024-01-30T12:41:14;101535.50;;;8.55;75.56
20696;BME280;10507;52.754;13.040;2024-01-30T12:43:41;101539.91;;;8.56;75.70
20696;BME280;10507;52.754;13.040;2024-01-30T12:46:08;101538.94;;;8.59;75.37
20696;BME280;10507;52.754;13.040;2024-01-30T12:48:35;101523.16;;;8.52;75.90